Time;durP1;ratioP1;P1;durP2;ratioP2;P2;SDS_P1;SDS_P2;PMS_P1;PMS_P2;Temp;Humidity;BMP_temperature;BMP_pressure;BME280_temperature;BME280_humidity;BME280_pressure;Samples;Min_cycle;Max_cycle;Signal;HPM_P1;HPM_P2
2022/05/25 00:02:50;;;;;;;1.83;0.50;;;;;;;13.71;53.67;95717.72;6245842;28;20037;-68
2022/05/25 00:05:58;;;;;;;2.85;0.63;;;;;;;13.83;53.13;95716.53;6245816;28;20038;-67
2022/05/25 00:09:03;;;;;;;2.35;0.40;;;;;;;13.78;53.37;95713.47;6245955;28;20037;-68
2022/05/25 00:12:08;;;;;;;0.80;0.52;;;;;;;13.76;52.85;95720.75;6245432;28;20046;-67
2022/05/25 00:15:12;;;;;;;1.35;0.50;;;;;;;13.91;52.15;95708.69;6245563;28;20041;-68
2022/05/25 00:18:17;;;;;;;1.02;0.57;;;;;;;13.92;52.20;95712.97;6245536;28;20060;-67
2022/05/25 00:21:22;;;;;;;0.85;0.60;;;;;;;14.03;51.51;95716.41;6228091;28;20422;-67
2022/05/25 00:24:25;;;;;;;2.17;0.70;;;;;;;14.05;51.55;95703.88;6245663;28;20049;-66
2022/05/25 00:27:30;;;;;;;2.22;0.80;;;;;;;13.99;51.66;95691.25;6245642;28;20049;-67
2022/05/25 00:30:35;;;;;;;1.45;0.45;;;;;;;13.89;52.19;95697.41;6245595;28;20084;-70
2022/05/25 00:33:39;;;;;;;0.50;0.50;;;;;;;14.08;51.53;95703.56;6245534;28;20446;-67
2022/05/25 00:36:42;;;;;;;1.00;0.55;;;;;;;14.04;51.42;95715.41;6245088;28;20046;-68
2022/05/25 00:39:46;;;;;;;1.45;0.68;;;;;;;13.92;51.99;95715.63;6227479;28;20422;-67
2022/05/25 00:42:51;;;;;;;2.67;0.55;;;;;;;14.15;51.19;95717.84;6245229;28;20042;-67
2022/05/25 00:46:00;;;;;;;4.00;0.50;;;;;;;14.14;51.27;95714.38;6245113;28;20423;-68
2022/05/25 00:49:12;;;;;;;0.70;0.60;;;;;;;14.05;51.51;95714.44;6245460;28;20041;-67
2022/05/25 00:52:16;;;;;;;3.70;1.13;;;;;;;14.08;51.55;95724.72;6227772;28;20037;-67
2022/05/25 00:55:30;;;;;;;1.30;0.73;;;;;;;13.93;52.08;95713.84;6245444;28;20045;-68
2022/05/25 00:58:37;;;;;;;1.13;0.60;;;;;;;13.89;52.27;95721.22;6245113;28;20037;-67
2022/05/25 01:01:43;;;;;;;1.30;0.60;;;;;;;13.92;52.11;95723.56;6245119;28;20041;-67
2022/05/25 01:04:48;;;;;;;3.13;0.65;;;;;;;13.93;52.09;95724.41;6248734;28;20045;-66
2022/05/25 01:08:21;;;;;;;1.27;0.60;;;;;;;13.92;52.37;95736.78;6249906;28;20037;-68
2022/05/25 01:11:59;;;;;;;0.88;0.45;;;;;;;14.02;51.82;95751.78;6223712;28;20057;-68
2022/05/25 01:15:16;;;;;;;0.85;0.50;;;;;;;14.10;51.75;95759.81;6225026;28;20042;-67
2022/05/25 01:18:41;;;;;;;0.60;0.50;;;;;;;14.22;50.88;95763.91;6224874;28;20044;-67
2022/05/25 01:21:55;;;;;;;3.30;0.60;;;;;;;14.15;51.12;95762.81;6224955;28;20468;-67
2022/05/25 01:25:16;;;;;;;;;;;;;;;14.11;51.56;95756.19;6225143;28;20037;-67
2022/05/25 01:28:57;;;;;;;1.15;0.68;;;;;;;14.18;51.61;95751.94;6225011;28;19927;-67
2022/05/25 01:32:10;;;;;;;2.13;0.70;;;;;;;14.09;51.88;95756.31;6223578;28;20049;-68
2022/05/25 01:35:19;;;;;;;;;;;;;;;14.04;52.35;95755.94;6224951;28;20411;-67
2022/05/25 01:38:36;;;;;;;0.77;0.50;;;;;;;13.98;52.77;95750.41;6224482;28;19921;-68
2022/05/25 01:42:15;;;;;;;3.22;0.90;;;;;;;14.00;52.92;95753.72;6223446;28;20049;-67
2022/05/25 01:45:23;;;;;;;4.00;0.80;;;;;;;13.99;52.90;95741.50;6224253;28;20415;-68
2022/05/25 01:48:33;;;;;;;1.30;0.60;;;;;;;14.06;52.70;95742.56;6224275;28;20038;-67
2022/05/25 01:51:56;;;;;;;1.63;0.50;;;;;;;14.14;52.74;95734.72;6224038;28;20209;-67
2022/05/25 01:55:09;;;;;;;0.68;0.60;;;;;;;14.25;52.19;95741.59;6224079;28;20038;-67
2022/05/25 01:58:16;;;;;;;0.60;0.60;;;;;;;14.29;52.42;95733.19;6223863;28;20042;-68
2022/05/25 02:01:23;;;;;;;3.63;1.55;;;;;;;14.43;52.21;95734.50;6224156;28;20045;-68
2022/05/25 02:04:28;;;;;;;2.38;0.80;;;;;;;14.42;52.31;95737.31;6222790;28;20057;-68
2022/05/25 02:07:54;;;;;;;2.13;0.63;;;;;;;14.50;52.26;95750.63;6223624;28;20085;-68
2022/05/25 02:11:46;;;;;;;1.77;0.75;;;;;;;14.53;52.42;95748.53;6237886;28;20148;-67
2022/05/25 02:15:07;;;;;;;2.20;0.90;;;;;;;14.60;52.49;95746.94;6171526;28;20068;-68
2022/05/25 02:18:45;;;;;;;1.23;0.75;;;;;;;14.75;52.29;95741.94;6182402;28;20053;-67
2022/05/25 02:22:03;;;;;;;1.55;0.60;;;;;;;14.77;52.30;95726.72;6229923;28;20049;-68
2022/05/25 02:25:18;;;;;;;1.38;0.80;;;;;;;14.84;52.30;95742.84;6247884;28;20045;-67
2022/05/25 02:28:34;;;;;;;2.22;0.80;;;;;;;15.03;51.67;95741.81;6247707;28;20045;-67
2022/05/25 02:31:47;;;;;;;1.95;0.88;;;;;;;15.22;51.51;95736.31;6229682;28;20057;-68
2022/05/25 02:34:55;;;;;;;3.93;0.80;;;;;;;15.21;51.75;95745.25;6247701;28;20044;-67
2022/05/25 02:38:05;;;;;;;2.35;0.70;;;;;;;15.13;52.43;95731.94;6247539;28;20495;-67
2022/05/25 02:41:12;;;;;;;3.22;0.73;;;;;;;15.02;52.95;95742.81;6247305;28;20045;-68
2022/05/25 02:44:15;;;;;;;1.58;0.98;;;;;;;15.01;53.52;95734.03;6246899;28;20046;-68
2022/05/25 02:47:21;;;;;;;2.40;1.00;;;;;;;14.98;54.18;95741.47;6229183;28;20136;-68
2022/05/25 02:50:25;;;;;;;2.40;0.70;;;;;;;15.10;54.23;95742.88;6229128;28;20423;-68
2022/05/25 02:53:30;;;;;;;1.00;0.68;;;;;;;15.22;54.28;95740.78;6246956;28;20046;-68
2022/05/25 02:56:35;;;;;;;2.10;0.93;;;;;;;15.42;54.29;95741.41;6229488;28;20483;-70
2022/05/25 02:59:40;;;;;;;1.73;0.90;;;;;;;15.67;54.16;95745.84;6246890;28;20045;-68
2022/05/25 03:02:44;;;;;;;1.80;1.00;;;;;;;15.79;54.33;95740.28;6246778;28;20037;-68
2022/05/25 03:05:49;;;;;;;1.25;0.73;;;;;;;15.75;54.74;95733.66;6246497;28;20501;-68
2022/05/25 03:08:54;;;;;;;6.28;1.20;;;;;;;15.78;55.30;95730.69;6246495;28;20065;-68
2022/05/25 03:11:59;;;;;;;5.05;1.70;;;;;;;15.85;55.44;95737.00;6246428;28;20143;-69
2022/05/25 03:15:05;;;;;;;3.33;1.23;;;;;;;15.90;55.78;95734.69;6228984;28;20056;-68
2022/05/25 03:18:10;;;;;;;2.55;0.82;;;;;;;16.03;56.01;95723.66;6246619;28;20482;-68
2022/05/25 03:21:15;;;;;;;4.13;1.20;;;;;;;16.13;56.05;95733.09;6228562;28;20054;-68
2022/05/25 03:24:18;;;;;;;6.10;1.42;;;;;;;16.44;55.93;95739.66;6246462;28;20049;-68
2022/05/25 03:27:23;;;;;;;4.50;1.20;;;;;;;16.69;55.39;95738.69;6245386;28;20037;-68
2022/05/25 03:30:28;;;;;;;5.65;1.38;;;;;;;17.15;54.80;95740.88;6246480;28;20045;-68
2022/05/25 03:33:34;;;;;;;2.72;1.50;;;;;;;17.50;53.88;95740.50;6246325;28;20041;-68
2022/05/25 03:36:38;;;;;;;2.92;1.20;;;;;;;17.72;53.66;95748.75;6246090;28;20041;-68
2022/05/25 03:39:43;;;;;;;3.78;1.33;;;;;;;17.99;53.63;95757.31;6228826;28;20045;-68
2022/05/25 03:42:48;;;;;;;6.53;1.70;;;;;;;18.15;53.48;95751.94;6246214;28;20038;-68
2022/05/25 03:45:53;;;;;;;7.40;1.80;;;;;;;18.25;54.02;95747.19;6246095;28;20045;-67
2022/05/25 03:48:58;;;;;;;7.22;1.52;;;;;;;18.11;54.68;95747.94;6246734;28;20414;-68
2022/05/25 03:52:04;;;;;;;5.38;1.65;;;;;;;18.19;54.87;95755.88;6245993;28;20046;-68
2022/05/25 03:55:08;;;;;;;7.57;1.83;;;;;;;18.43;54.63;95751.44;6228249;28;20504;-68
2022/05/25 03:58:14;;;;;;;6.78;1.30;;;;;;;18.53;54.02;95760.84;6245667;28;20047;-67
2022/05/25 04:01:19;;;;;;;5.03;1.58;;;;;;;18.13;55.07;95753.94;6227864;28;20431;-67
2022/05/25 04:04:24;;;;;;;8.18;2.20;;;;;;;17.92;55.62;95760.69;6245376;28;20045;-67
2022/05/25 04:07:28;;;;;;;5.80;1.38;;;;;;;17.69;56.48;95759.72;6245623;28;20045;-68
2022/05/25 04:10:33;;;;;;;4.45;1.80;;;;;;;17.46;57.68;95775.56;6245799;28;20053;-69
2022/05/25 04:13:38;;;;;;;4.75;2.20;;;;;;;17.47;58.03;95762.09;6246282;28;20053;-67
2022/05/25 04:16:45;;;;;;;6.10;1.75;;;;;;;17.83;57.07;95756.38;6246044;28;20481;-68
2022/05/25 04:19:50;;;;;;;6.40;2.00;;;;;;;17.95;56.76;95765.66;6245699;28;20046;-69
2022/05/25 04:22:56;;;;;;;5.45;1.90;;;;;;;17.99;56.89;95762.66;6211786;28;20104;-69
2022/05/25 04:26:00;;;;;;;8.20;2.35;;;;;;;18.24;55.99;95753.53;6245453;28;20430;-68
2022/05/25 04:29:05;;;;;;;4.95;1.58;;;;;;;18.44;55.25;95755.78;6245420;28;20140;-67
2022/05/25 04:32:10;;;;;;;5.38;2.28;;;;;;;18.71;54.77;95760.59;6245535;28;20045;-68
2022/05/25 04:35:16;;;;;;;8.10;2.10;;;;;;;18.80;53.94;95748.06;6245541;28;20488;-68
2022/05/25 04:38:20;;;;;;;8.30;1.65;;;;;;;18.62;54.58;95750.97;6248764;28;20049;-67
2022/05/25 04:41:24;;;;;;;7.60;1.67;;;;;;;18.63;54.70;95747.31;6232154;28;20532;-67
2022/05/25 04:44:27;;;;;;;5.53;2.00;;;;;;;19.15;53.84;95759.94;6250742;28;20041;-68
2022/05/25 04:47:34;;;;;;;8.38;1.85;;;;;;;19.68;51.88;95762.66;6250064;28;20045;-68
2022/05/25 04:50:42;;;;;;;6.57;1.73;;;;;;;19.34;52.87;95757.78;6250036;28;20045;-67
2022/05/25 04:53:47;;;;;;;9.05;2.40;;;;;;;18.90;54.21;95774.47;6249777;28;20041;-68
2022/05/25 05:00:15;;;;;;;6.63;1.70;;;;;;;18.56;55.52;95781.81;6249762;28;20053;-68
2022/05/25 05:03:20;;;;;;;6.65;1.83;;;;;;;18.53;55.63;95779.50;6231822;28;20045;-68
2022/05/25 05:06:24;;;;;;;7.50;2.05;;;;;;;18.32;56.44;95777.47;6249486;28;20045;-68
2022/05/25 05:09:34;;;;;;;7.43;2.22;;;;;;;18.42;56.76;95787.88;6249552;28;20136;-67
2022/05/25 05:12:40;;;;;;;6.90;1.98;;;;;;;18.38;56.87;95798.06;6249779;28;20072;-68
2022/05/25 05:15:45;;;;;;;9.20;2.28;;;;;;;18.34;57.49;95788.78;6249573;28;20090;-67
2022/05/25 05:18:49;;;;;;;8.32;2.45;;;;;;;18.44;57.78;95785.88;6250051;28;20045;-68
2022/05/25 05:21:55;;;;;;;7.60;2.10;;;;;;;18.69;57.02;95791.91;6249026;28;20041;-67
2022/05/25 05:25:00;;;;;;;13.80;3.35;;;;;;;18.78;56.34;95788.22;6231938;28;20438;-67
2022/05/25 05:28:15;;;;;;;12.20;2.63;;;;;;;18.82;56.41;95800.19;6249357;28;20132;-68
2022/05/25 05:31:19;;;;;;;13.65;2.47;;;;;;;18.67;57.51;95801.91;6249405;28;20041;-68
2022/05/25 05:34:28;;;;;;;9.00;2.30;;;;;;;18.25;58.79;95802.28;6249139;28;20041;-67
2022/05/25 05:37:39;;;;;;;9.95;3.08;;;;;;;18.06;60.24;95808.84;6231704;28;20049;-68
2022/05/25 05:40:45;;;;;;;10.02;2.13;;;;;;;17.71;61.43;95805.59;6249198;28;20411;-68
2022/05/25 05:43:52;;;;;;;6.97;2.78;;;;;;;17.84;61.11;95792.63;6249319;28;20132;-69
2022/05/25 05:47:01;;;;;;;12.25;3.15;;;;;;;18.09;60.60;95795.22;6231252;28;20041;-67
2022/05/25 05:50:08;;;;;;;7.60;3.05;;;;;;;18.25;60.27;95791.66;6247899;28;20037;-67
2022/05/25 05:53:13;;;;;;;5.78;2.13;;;;;;;18.25;60.01;95800.47;6248107;28;20033;-67
2022/05/25 05:56:19;;;;;;;9.57;3.15;;;;;;;18.13;60.47;95788.53;6230772;28;20049;-68
2022/05/25 05:59:23;;;;;;;9.93;3.15;;;;;;;18.08;60.67;95780.22;6248352;28;20114;-68
2022/05/25 06:02:28;;;;;;;14.40;4.47;;;;;;;18.03;60.78;95795.88;6248537;28;20128;-68
2022/05/25 06:05:33;;;;;;;10.63;3.00;;;;;;;17.94;61.49;95798.56;6248173;28;20049;-68
2022/05/25 06:08:37;;;;;;;9.10;3.22;;;;;;;17.94;61.36;95801.22;6248765;28;20415;-67
2022/05/25 06:11:43;;;;;;;10.45;3.50;;;;;;;17.92;61.80;95800.59;6247867;28;20046;-68
2022/05/25 06:14:47;;;;;;;10.27;3.50;;;;;;;18.07;61.67;95799.88;6247846;28;20041;-68
2022/05/25 06:21:14;;;;;;;15.73;3.25;;;;;;;18.29;61.34;95807.13;6248344;28;20037;-68
2022/05/25 06:24:18;;;;;;;13.60;3.33;;;;;;;18.27;61.87;95790.47;6230278;28;20041;-68
2022/05/25 06:27:23;;;;;;;8.85;3.35;;;;;;;18.24;62.24;95796.16;6230175;28;20491;-68
2022/05/25 06:30:28;;;;;;;10.80;3.70;;;;;;;18.32;61.96;95804.09;6230202;28;20041;-68
2022/05/25 06:33:33;;;;;;;12.23;2.72;;;;;;;18.31;62.15;95823.72;6247607;28;20411;-67
2022/05/25 06:36:37;;;;;;;8.32;2.55;;;;;;;18.52;61.87;95824.97;6247499;28;20048;-68
2022/05/25 06:39:42;;;;;;;9.45;3.60;;;;;;;18.63;61.66;95827.25;6247097;28;20037;-68
2022/05/25 06:42:48;;;;;;;10.80;3.95;;;;;;;18.79;61.13;95835.16;6247311;28;20037;-68
2022/05/25 06:45:53;;;;;;;9.65;3.10;;;;;;;18.90;60.60;95838.44;6247270;28;20415;-67
2022/05/25 06:48:58;;;;;;;12.88;3.65;;;;;;;18.77;61.45;95834.53;6246868;28;20139;-67
2022/05/25 06:52:07;;;;;;;13.15;3.83;;;;;;;19.02;60.53;95845.03;6246862;28;20124;-69
2022/05/25 06:55:12;;;;;;;15.23;3.97;;;;;;;19.09;60.47;95853.97;6229677;28;20499;-67
2022/05/25 06:58:17;;;;;;;13.88;3.67;;;;;;;18.98;60.26;95847.22;6246876;28;20041;-67
2022/05/25 07:01:23;;;;;;;12.77;2.97;;;;;;;18.71;61.22;95850.34;6246970;28;20418;-69
2022/05/25 07:04:28;;;;;;;10.52;3.10;;;;;;;18.62;61.46;95841.56;6246485;28;20049;-68
2022/05/25 07:07:37;;;;;;;11.60;3.08;;;;;;;18.49;61.76;95862.63;6229111;28;20041;-68
2022/05/25 07:10:45;;;;;;;7.72;3.08;;;;;;;18.25;62.78;95845.72;6246725;28;20057;-67
2022/05/25 07:13:49;;;;;;;9.70;2.60;;;;;;;18.19;63.45;95857.06;6246686;28;20132;-67
2022/05/25 07:16:55;;;;;;;7.10;2.83;;;;;;;18.17;63.34;95867.91;6246633;28;20049;-67
2022/05/25 07:20:00;;;;;;;6.63;2.10;;;;;;;18.26;63.05;95831.44;6228909;28;20053;-68
2022/05/25 07:23:05;;;;;;;10.68;3.60;;;;;;;18.32;63.06;95841.38;6246608;28;20415;-69
2022/05/25 07:26:12;;;;;;;9.80;2.83;;;;;;;18.84;61.39;95830.16;6245937;28;20046;-68
2022/05/25 07:29:17;;;;;;;8.55;3.08;;;;;;;20.08;58.76;95828.09;6246332;28;20041;-68
2022/05/25 07:32:22;;;;;;;10.93;3.60;;;;;;;22.60;51.90;95826.13;6246110;28;20069;-68
2022/05/25 07:35:27;;;;;;;6.43;2.63;;;;;;;23.79;48.55;95828.25;6228570;28;20053;-67
2022/05/25 07:38:32;;;;;;;6.30;2.00;;;;;;;24.94;45.65;95847.44;6245856;28;20049;-68
2022/05/25 07:41:41;;;;;;;15.63;3.15;;;;;;;24.41;46.75;95836.84;6245941;28;20103;-67
2022/05/25 07:44:53;;;;;;;16.58;3.63;;;;;;;23.15;48.79;95821.56;6228664;28;20041;-68
2022/05/25 07:47:58;;;;;;;8.25;2.80;;;;;;;22.22;50.83;95823.88;6246151;28;20044;-68
2022/05/25 07:51:04;;;;;;;12.88;2.78;;;;;;;21.44;53.01;95823.94;6245972;28;20491;-68
2022/05/25 07:54:09;;;;;;;7.63;2.70;;;;;;;20.97;55.09;95832.50;6246263;28;20045;-68
2022/05/25 07:57:13;;;;;;;10.50;3.45;;;;;;;20.65;55.43;95839.97;6245958;28;20419;-68
2022/05/25 08:00:24;;;;;;;9.45;2.90;;;;;;;20.56;55.58;95828.56;6211907;28;20418;-69
2022/05/25 08:06:51;;;;;;;10.70;2.07;;;;;;;20.83;53.19;95837.72;6245658;28;20046;-69
2022/05/25 08:10:08;;;;;;;14.65;2.90;;;;;;;21.42;51.61;95841.19;6245815;28;20057;-68
2022/05/25 08:13:17;;;;;;;7.57;2.83;;;;;;;21.60;50.58;95840.72;6227589;28;20034;-68
2022/05/25 08:16:21;;;;;;;8.75;2.42;;;;;;;22.43;48.53;95855.13;6244429;28;20053;-68
2022/05/25 08:19:26;;;;;;;8.70;2.00;;;;;;;24.50;43.79;95845.53;6227523;28;20499;-68
2022/05/25 08:22:30;;;;;;;7.15;2.35;;;;;;;24.45;43.49;95853.41;6244805;28;20524;-69
2022/05/25 08:25:34;;;;;;;11.55;1.40;;;;;;;23.68;43.94;95836.91;6245286;28;20037;-68
2022/05/25 08:28:37;;;;;;;6.45;1.80;;;;;;;22.92;46.13;95845.22;6245227;28;20045;-69
2022/05/25 08:31:41;;;;;;;1.88;1.20;;;;;;;23.26;44.85;95845.13;6245463;28;20045;-68
2022/05/25 08:34:45;;;;;;;6.28;2.42;;;;;;;23.26;44.98;95853.19;6227937;28;20041;-68
2022/05/25 08:37:51;;;;;;;7.97;1.58;;;;;;;23.94;43.16;95846.84;6245484;28;20042;-67
2022/05/25 08:40:58;;;;;;;4.80;2.05;;;;;;;24.26;43.18;95865.81;6245385;28;20045;-68
2022/05/25 08:44:04;;;;;;;5.32;1.30;;;;;;;23.85;43.61;95861.53;6245051;28;20056;-68
2022/05/25 08:47:12;;;;;;;3.60;1.20;;;;;;;23.35;44.06;95855.69;6227228;28;20431;-68
2022/05/25 08:50:16;;;;;;;3.63;1.20;;;;;;;25.90;39.45;95857.22;6245278;28;20045;-68
2022/05/25 08:53:26;;;;;;;5.18;1.40;;;;;;;27.70;36.33;95872.13;6244646;28;20037;-68
2022/05/25 08:56:49;;;;;;;4.03;1.35;;;;;;;29.26;33.73;95878.91;6245310;28;20041;-67
2022/05/25 09:00:02;;;;;;;6.25;1.40;;;;;;;30.83;31.42;95877.22;6245324;28;20411;-69
2022/05/25 09:03:19;;;;;;;;;;;;;;;32.25;28.68;95892.56;6245266;28;20048;-68
2022/05/25 09:06:53;;;;;;;4.85;1.40;;;;;;;33.33;27.41;95874.94;6244759;28;19921;-67
2022/05/25 09:09:58;;;;;;;6.10;1.77;;;;;;;32.71;27.48;95873.03;6244990;28;20423;-68
2022/05/25 09:13:09;;;;;;;4.50;1.63;;;;;;;31.06;29.83;95880.75;6244641;28;20415;-67
2022/05/25 09:16:22;;;;;;;4.10;1.10;;;;;;;29.52;32.10;95881.03;6244969;28;20518;-66
2022/05/25 09:19:35;;;;;;;3.50;1.00;;;;;;;30.31;31.04;95885.66;6245058;28;20573;-68
2022/05/25 09:22:38;;;;;;;;;;;;;;;31.76;28.94;95877.19;6245302;28;20045;-68
2022/05/25 09:25:46;;;;;;;5.00;1.48;;;;;;;28.65;33.62;95879.28;6230924;28;19920;-68
2022/05/25 09:28:55;;;;;;;4.20;1.27;;;;;;;26.07;38.39;95862.03;6249585;28;20042;-68
2022/05/25 09:32:35;;;;;;;7.22;1.50;;;;;;;24.23;43.04;95866.22;6231081;28;20041;-68
2022/05/25 09:35:48;;;;;;;3.42;1.20;;;;;;;23.62;44.44;95868.09;6249053;28;20426;-68
2022/05/25 09:39:27;;;;;;;3.95;1.48;;;;;;;22.88;46.15;95878.84;6249088;28;20037;-68
2022/05/25 09:42:35;;;;;;;3.70;1.50;;;;;;;21.51;49.57;95875.69;6245278;28;20163;-67
2022/05/25 09:45:49;;;;;;;5.88;1.58;;;;;;;20.82;51.73;95884.16;6248463;28;20060;-67
2022/05/25 09:49:02;;;;;;;5.07;1.80;;;;;;;19.88;55.83;95907.09;6248668;28;20041;-68
2022/05/25 09:52:22;;;;;;;4.28;2.42;;;;;;;18.78;60.52;95905.47;6248672;28;20045;-72
2022/05/25 09:55:51;;;;;;;4.07;1.75;;;;;;;17.59;66.05;95897.41;6248476;28;20041;-70
2022/05/25 09:59:01;;;;;;;1.75;0.95;;;;;;;16.80;69.35;95904.94;6248096;28;20045;-70
2022/05/25 10:02:31;;;;;;;1.63;0.60;;;;;;;16.57;71.16;95918.78;6248584;28;20499;-68
2022/05/25 10:05:52;;;;;;;0.60;0.57;;;;;;;16.36;72.81;95905.91;6248122;28;20744;-73
2022/05/25 10:09:12;;;;;;;0.60;0.38;;;;;;;17.56;71.03;95909.19;6247709;28;20089;-69
2022/05/25 10:12:41;;;;;;;2.05;0.95;;;;;;;17.65;71.74;95908.19;6247900;28;20496;-70
2022/05/25 10:15:51;;;;;;;1.60;0.40;;;;;;;17.70;71.27;95915.69;6234403;28;20050;-71
2022/05/25 10:19:00;;;;;;;0.50;0.40;;;;;;;17.40;71.35;95911.84;6248198;28;20045;-70
2022/05/25 10:22:03;;;;;;;0.32;0.30;;;;;;;17.32;71.91;95919.81;6247214;28;20072;-71
2022/05/25 10:25:21;;;;;;;2.15;0.50;;;;;;;17.36;70.72;95919.34;6247776;28;20044;-71
2022/05/25 10:28:39;;;;;;;0.65;0.50;;;;;;;17.44;70.17;95927.31;6229747;28;20041;-73
2022/05/25 10:38:35;;;;;;;0.30;0.20;;;;;;;18.76;65.05;95934.13;6247911;28;19917;-69
2022/05/25 10:41:41;;;;;;;0.25;0.10;;;;;;;18.83;62.41;95935.09;6246401;28;20618;-70
2022/05/25 10:45:03;;;;;;;0.35;0.20;;;;;;;19.00;61.14;95956.34;6247010;28;20053;-67
2022/05/25 10:48:18;;;;;;;0.55;0.30;;;;;;;19.65;60.50;95947.13;6247640;28;20053;-67
2022/05/25 10:51:44;;;;;;;0.73;0.20;;;;;;;20.18;58.39;95946.19;6246558;28;20057;-68
2022/05/25 10:54:52;;;;;;;0.45;0.20;;;;;;;21.28;53.95;95944.56;6246295;28;20418;-67
2022/05/25 10:57:56;;;;;;;0.47;0.30;;;;;;;22.35;47.63;95944.56;6246288;28;20415;-68
2022/05/25 11:14:07;;;;;;;0.17;0.10;;;;;;;20.90;49.59;95962.63;6317452;27;20658;-69
2022/05/25 11:17:48;;;;;;;0.32;0.22;;;;;;;21.00;48.58;95977.34;6315320;28;20426;-69
2022/05/25 11:21:16;;;;;;;0.13;0.10;;;;;;;21.28;49.17;95963.28;6316606;28;20349;-69
2022/05/25 11:24:20;;;;;;;1.17;0.10;;;;;;;21.82;47.74;95960.16;6316205;28;20044;-69
2022/05/25 11:27:39;;;;;;;0.40;0.30;;;;;;;22.12;46.15;95974.25;6316346;28;20040;-70
2022/05/25 11:30:59;;;;;;;0.45;0.25;;;;;;;22.28;45.96;95970.50;6316327;28;20045;-70
2022/05/25 11:34:27;;;;;;;0.85;0.50;;;;;;;22.27;45.39;95974.19;6315649;28;20887;-69
2022/05/25 11:37:56;;;;;;;1.17;0.80;;;;;;;21.73;46.18;95990.78;6307214;28;20529;-69
2022/05/25 11:41:37;;;;;;;1.05;0.70;;;;;;;21.26;46.93;95987.56;6315617;28;20117;-69
2022/05/25 11:44:56;;;;;;;3.88;1.23;;;;;;;21.01;47.08;96010.31;6314392;28;20040;-69
2022/05/25 11:48:21;;;;;;;1.45;0.70;;;;;;;20.91;47.16;95999.88;6315673;28;20462;-69
2022/05/25 11:52:02;;;;;;;1.30;0.50;;;;;;;21.33;46.69;96011.72;6315626;28;20130;-70
2022/05/25 11:55:25;;;;;;;0.30;0.30;;;;;;;21.72;43.84;96023.94;6315530;28;20042;-70
2022/05/25 11:58:42;;;;;;;0.28;0.28;;;;;;;22.11;43.68;96017.31;6313982;28;20058;-68
2022/05/25 12:02:12;;;;;;;0.88;0.20;;;;;;;22.49;42.91;96025.06;6315690;28;20139;-69
2022/05/25 12:05:23;;;;;;;0.30;0.30;;;;;;;22.42;42.26;96031.22;6315472;28;20037;-69
2022/05/25 12:08:45;;;;;;;0.30;0.30;;;;;;;22.12;42.74;96051.13;6315557;28;20041;-70
2022/05/25 12:11:55;;;;;;;1.20;0.22;;;;;;;21.74;42.86;96048.69;6314832;28;20098;-69
2022/05/25 12:15:18;;;;;;;0.90;0.40;;;;;;;21.69;43.37;96056.44;6297775;28;20046;-69
2022/05/25 12:18:25;;;;;;;1.53;0.80;;;;;;;21.69;42.81;96051.09;6296912;28;20129;-69
2022/05/25 12:21:40;;;;;;;1.30;0.40;;;;;;;21.21;43.10;96064.06;6298148;28;20051;-68
2022/05/25 12:24:53;;;;;;;0.50;0.20;;;;;;;20.63;44.00;96078.03;6298057;28;20427;-69
2022/05/25 12:27:57;;;;;;;0.30;0.30;;;;;;;20.42;43.76;96078.69;6298053;28;20036;-69
2022/05/25 12:31:05;;;;;;;0.43;0.20;;;;;;;19.80;45.03;96075.31;6297431;28;20032;-69
2022/05/25 12:34:20;;;;;;;0.55;0.20;;;;;;;19.77;45.13;96073.00;6297886;28;20040;-69
2022/05/25 12:37:26;;;;;;;0.93;0.50;;;;;;;19.51;45.32;96076.78;6297783;28;20526;-69
2022/05/25 12:40:30;;;;;;;1.38;0.80;;;;;;;19.27;45.67;96077.72;6298072;28;20032;-69
2022/05/25 12:43:56;;;;;;;1.42;1.05;;;;;;;19.12;45.88;96077.63;6297362;28;20048;-70
2022/05/25 12:50:39;;;;;;;1.20;0.80;;;;;;;18.63;46.66;96093.69;6297257;28;20055;-71
2022/05/25 12:53:47;;;;;;;2.15;1.08;;;;;;;18.42;46.71;96106.69;6297382;28;20036;-70
2022/05/25 12:56:50;;;;;;;1.10;0.73;;;;;;;18.01;47.84;96125.31;6297775;28;20403;-71
2022/05/25 12:59:54;;;;;;;1.92;0.77;;;;;;;17.57;48.19;96121.00;6297547;28;20045;-70
2022/05/25 13:03:11;;;;;;;2.70;1.60;;;;;;;17.18;48.54;96116.22;6297130;28;20047;-70
2022/05/25 13:06:37;;;;;;;2.70;1.20;;;;;;;16.65;50.02;96126.97;6297284;28;20474;-69
2022/05/25 13:09:45;;;;;;;2.35;1.38;;;;;;;16.46;50.84;96110.25;6287259;28;20049;-70
2022/05/25 13:12:50;;;;;;;1.33;0.90;;;;;;;16.77;50.46;96131.06;6297019;28;20139;-71
2022/05/25 13:16:00;;;;;;;0.75;0.65;;;;;;;17.01;49.20;96122.41;6297134;28;20552;-69
2022/05/25 13:19:19;;;;;;;2.50;1.35;;;;;;;16.95;49.60;96131.84;6295387;28;20079;-71
2022/05/25 13:22:29;;;;;;;1.55;1.10;;;;;;;16.86;49.25;96119.50;6296780;28;20044;-70
2022/05/25 13:25:49;;;;;;;1.67;1.15;;;;;;;17.28;48.49;96126.72;6295810;28;20485;-70
2022/05/25 13:29:03;;;;;;;0.95;0.70;;;;;;;17.71;47.42;96138.16;6296553;28;20036;-69
2022/05/25 13:32:28;;;;;;;1.50;0.80;;;;;;;17.91;46.52;96136.91;6296177;28;20092;-69
2022/05/25 13:35:39;;;;;;;1.02;0.90;;;;;;;17.82;45.94;96140.56;6296247;28;20197;-70
2022/05/25 13:38:43;;;;;;;1.25;0.80;;;;;;;17.56;46.14;96127.31;6296388;28;20045;-69
2022/05/25 13:41:54;;;;;;;1.15;0.98;;;;;;;17.31;46.70;96129.03;6295944;28;20182;-69
2022/05/25 13:45:05;;;;;;;1.85;1.20;;;;;;;17.12;46.62;96134.59;6294656;28;20048;-70
2022/05/25 13:48:18;;;;;;;1.33;1.00;;;;;;;17.05;45.79;96140.53;6295616;28;20040;-70
2022/05/25 13:51:20;;;;;;;1.08;0.77;;;;;;;16.66;46.49;96123.31;6295813;28;20043;-70
2022/05/25 13:54:25;;;;;;;1.25;0.82;;;;;;;16.62;46.45;96133.44;6296189;28;20044;-69
2022/05/25 13:57:35;;;;;;;2.60;0.82;;;;;;;16.55;46.74;96130.53;6294506;28;20048;-70
2022/05/25 14:00:46;;;;;;;1.88;0.85;;;;;;;16.52;46.49;96138.81;6296125;28;20086;-71
2022/05/25 14:03:55;;;;;;;0.70;0.70;;;;;;;16.54;46.31;96142.16;6295985;28;20051;-70
2022/05/25 14:07:02;;;;;;;1.20;1.10;;;;;;;16.63;45.60;96144.88;6295535;28;20135;-69
2022/05/25 14:13:40;;;;;;;1.15;1.05;;;;;;;16.65;45.07;96142.91;6295344;28;20048;-69
2022/05/25 14:16:52;;;;;;;1.85;1.30;;;;;;;16.66;45.35;96149.88;6295485;28;20044;-70
2022/05/25 14:20:02;;;;;;;1.33;1.20;;;;;;;16.79;44.95;96158.31;6295221;28;20039;-70
2022/05/25 14:23:08;;;;;;;2.05;1.23;;;;;;;17.21;43.71;96170.84;6295150;28;20041;-70
2022/05/25 14:26:15;;;;;;;1.50;0.95;;;;;;;17.48;42.32;96165.34;6295351;28;20040;-73
2022/05/25 14:29:25;;;;;;;1.80;1.17;;;;;;;17.78;42.03;96184.47;6295583;28;20044;-72
2022/05/25 14:32:33;;;;;;;2.17;1.50;;;;;;;17.76;41.36;96180.25;6295214;28;20040;-70
2022/05/25 14:35:55;;;;;;;1.67;1.08;;;;;;;17.69;41.48;96190.69;6294827;28;20059;-70
2022/05/25 14:38:58;;;;;;;1.35;1.08;;;;;;;17.57;41.28;96181.34;6294111;28;20130;-71
2022/05/25 14:42:15;;;;;;;2.47;1.65;;;;;;;17.21;41.60;96186.81;6294904;28;20044;-72
2022/05/25 14:45:17;;;;;;;1.55;1.17;;;;;;;16.89;42.06;96192.75;6294927;28;20575;-71
2022/05/25 14:48:21;;;;;;;3.22;1.42;;;;;;;16.68;41.79;96193.06;6294886;28;20032;-71
2022/05/25 14:51:28;;;;;;;3.45;1.13;;;;;;;16.39;42.65;96202.13;6295197;28;20036;-71
2022/05/25 14:54:30;;;;;;;1.38;1.27;;;;;;;16.19;43.21;96189.97;6294998;28;20045;-70
2022/05/25 14:57:37;;;;;;;1.52;1.40;;;;;;;15.99;43.90;96194.56;6295125;28;20040;-70
2022/05/25 15:00:44;;;;;;;2.47;1.52;;;;;;;15.85;44.58;96210.03;6295220;28;20044;-73
2022/05/25 15:03:50;;;;;;;1.85;1.60;;;;;;;15.70;45.55;96201.72;6295262;28;20036;-71
2022/05/25 15:06:57;;;;;;;6.10;1.70;;;;;;;15.61;46.23;96207.88;6294944;28;20036;-74
2022/05/25 15:10:11;;;;;;;2.05;1.40;;;;;;;15.55;46.47;96213.78;6294971;28;20042;-70
2022/05/25 15:18:29;;;;;;;1.90;1.23;;;;;;;15.70;46.09;96217.63;6294771;28;20048;-71
2022/05/25 15:20:34;;;;;;;2.80;1.45;;;;;;;15.24;47.20;96229.94;6294838;28;20135;-70
2022/05/25 15:23:52;;;;;;;2.95;1.40;;;;;;;15.03;47.72;96218.66;6294763;28;20052;-72
2022/05/25 15:27:04;;;;;;;1.75;1.30;;;;;;;14.95;47.80;96242.41;6294876;28;20045;-71
2022/05/25 15:30:38;;;;;;;4.00;2.58;;;;;;;14.80;48.25;96234.91;6294671;28;20044;-70
2022/05/25 15:33:42;;;;;;;2.07;1.60;;;;;;;14.62;49.01;96238.41;6294627;28;20040;-71
2022/05/25 15:36:50;;;;;;;1.60;1.20;;;;;;;14.41;49.65;96243.78;6293678;28;20040;-70
2022/05/25 15:39:56;;;;;;;2.28;1.33;;;;;;;14.26;50.10;96257.41;6292865;28;20048;-71